createdAt,value
2017-03-24T00:00:07.574Z,66.50
2017-03-24T00:01:13.317Z,66.90
2017-03-24T00:02:18.865Z,67.40
2017-03-24T00:03:23.654Z,67.20
2017-03-24T00:04:29.241Z,67.60
2017-03-24T00:05:34.705Z,67.80
2017-03-24T00:06:39.659Z,67.70
2017-03-24T00:07:45.148Z,67.00
2017-03-24T00:08:50.698Z,67.90
2017-03-24T00:09:56.265Z,66.60
2017-03-24T00:11:01.029Z,66.50
2017-03-24T00:12:06.569Z,66.50
2017-03-24T00:13:13.011Z,66.20
2017-03-24T00:14:19.702Z,66.20
2017-03-24T00:15:24.570Z,66.50
2017-03-24T00:16:30.029Z,66.80
2017-03-24T00:17:36.398Z,65.80
2017-03-24T00:18:41.222Z,65.80
2017-03-24T00:19:46.793Z,65.80
2017-03-24T00:20:51.688Z,65.60
2017-03-24T00:21:58.001Z,66.00
2017-03-24T00:23:03.413Z,65.80
2017-03-24T00:24:08.167Z,65.70
2017-03-24T00:25:13.822Z,65.50
2017-03-24T00:26:19.446Z,65.20
2017-03-24T00:27:25.086Z,64.90
2017-03-24T00:28:30.713Z,64.60
2017-03-24T00:29:37.177Z,64.80
2017-03-24T00:30:41.913Z,64.70
2017-03-24T00:31:47.373Z,65.20
2017-03-24T00:32:52.824Z,65.70
2017-03-24T00:33:57.750Z,65.70
2017-03-24T00:35:03.435Z,65.40
2017-03-24T00:36:09.105Z,65.60
2017-03-24T00:37:15.357Z,65.20
2017-03-24T00:38:20.889Z,65.40
2017-03-24T00:39:25.596Z,65.40
2017-03-24T00:40:31.840Z,64.60
2017-03-24T00:41:36.677Z,64.50
2017-03-24T00:42:43.043Z,65.40
2017-03-24T00:43:48.630Z,65.50
2017-03-24T00:44:54.298Z,64.40
2017-03-24T00:45:58.974Z,64.30
2017-03-24T00:47:05.418Z,65.10
2017-03-24T00:48:10.306Z,65.10
2017-03-24T00:49:16.471Z,64.20
2017-03-24T00:50:21.302Z,64.20
2017-03-24T00:51:27.565Z,64.90
2017-03-24T00:52:33.253Z,65.20
2017-03-24T00:53:38.071Z,65.30
2017-03-24T00:54:44.458Z,64.20
2017-03-24T00:55:50.000Z,63.90
2017-03-24T00:56:54.884Z,63.90
2017-03-24T00:58:00.522Z,63.80
2017-03-24T00:59:06.080Z,63.80
2017-03-24T01:00:12.504Z,63.90
2017-03-24T01:01:17.325Z,63.90
2017-03-24T01:02:23.661Z,64.10
2017-03-24T01:03:29.295Z,63.70
2017-03-24T01:04:34.180Z,63.70
2017-03-24T01:05:40.669Z,64.50
2017-03-24T01:06:45.408Z,64.40
2017-03-24T01:07:51.779Z,65.10
2017-03-24T01:08:56.521Z,64.20
2017-03-24T01:10:02.147Z,64.70
2017-03-24T01:11:07.683Z,64.10
2017-03-24T01:12:13.287Z,64.50
2017-03-24T01:13:18.010Z,65.60
2017-03-24T01:14:23.695Z,65.20
2017-03-24T01:15:29.279Z,66.00
2017-03-24T01:16:34.094Z,65.80
2017-03-24T01:17:39.405Z,65.60
2017-03-24T01:18:44.107Z,64.70
2017-03-24T01:19:49.658Z,64.30
2017-03-24T01:20:55.109Z,63.80
2017-03-24T01:22:00.714Z,65.40
2017-03-24T01:23:06.229Z,64.80
2017-03-24T01:24:11.748Z,63.80
2017-03-24T01:25:18.029Z,64.60
2017-03-24T01:26:22.815Z,64.40
2017-03-24T01:27:29.215Z,64.10
2017-03-24T01:28:34.825Z,65.20
2017-03-24T01:29:40.437Z,65.80
2017-03-24T01:30:45.375Z,65.60
2017-03-24T01:31:51.505Z,65.00
2017-03-24T01:32:57.090Z,65.20
2017-03-24T01:34:01.877Z,65.00
2017-03-24T01:35:07.552Z,64.00
2017-03-24T01:36:13.827Z,64.10
2017-03-24T01:37:19.331Z,64.20
2017-03-24T01:38:24.918Z,64.10
2017-03-24T01:39:29.686Z,64.30
2017-03-24T01:40:35.238Z,63.90
2017-03-24T01:41:40.910Z,63.30
2017-03-24T01:42:46.497Z,63.50
2017-03-24T01:43:52.929Z,61.00
2017-03-24T01:44:58.318Z,62.40
2017-03-24T01:46:03.445Z,62.40
2017-03-24T01:47:09.162Z,61.70
2017-03-24T01:48:14.668Z,62.10
2017-03-24T01:49:20.322Z,62.00
2017-03-24T01:50:25.961Z,62.30
2017-03-24T01:51:31.494Z,62.50
2017-03-24T01:52:37.160Z,61.60
2017-03-24T01:53:43.611Z,61.20
2017-03-24T01:54:48.301Z,61.20
2017-03-24T01:55:58.056Z,60.80
2017-03-24T01:57:03.426Z,61.50
2017-03-24T01:58:08.933Z,61.10
2017-03-24T01:59:15.132Z,60.30
2017-03-24T02:00:20.858Z,60.50
2017-03-24T02:01:25.761Z,60.40
2017-03-24T02:02:31.242Z,59.90
2017-03-24T02:03:36.894Z,61.20
2017-03-24T02:04:42.108Z,61.10
2017-03-24T02:05:46.886Z,60.10
2017-03-24T02:06:53.306Z,59.50
2017-03-24T02:07:58.010Z,59.40
2017-03-24T02:09:04.610Z,60.20
2017-03-24T02:10:09.498Z,60.60
2017-03-24T02:11:15.641Z,59.90
2017-03-24T02:12:21.251Z,59.70
2017-03-24T02:13:26.163Z,59.60
2017-03-24T02:14:32.510Z,59.80
2017-03-24T02:15:37.232Z,59.80
2017-03-24T02:16:43.630Z,59.40
2017-03-24T02:17:49.137Z,59.40
2017-03-24T02:18:54.825Z,58.60
2017-03-24T02:20:00.532Z,59.80
2017-03-24T02:21:05.377Z,60.00
2017-03-24T02:22:11.029Z,59.10
2017-03-24T02:23:16.649Z,59.10
2017-03-24T02:24:22.062Z,61.50
2017-03-24T02:25:27.689Z,59.70
2017-03-24T02:26:34.073Z,60.30
2017-03-24T02:27:39.681Z,60.30
2017-03-24T02:28:45.190Z,61.10
2017-03-24T02:29:50.026Z,61.00
2017-03-24T02:30:56.449Z,61.90
2017-03-24T02:32:02.138Z,61.90
2017-03-24T02:33:08.441Z,62.40
2017-03-24T02:34:14.186Z,62.70
2017-03-24T02:35:19.628Z,61.70
2017-03-24T02:36:24.685Z,61.60
2017-03-24T02:37:30.238Z,62.20
2017-03-24T02:38:36.695Z,62.40
2017-03-24T02:39:42.114Z,62.20
2017-03-24T02:40:47.016Z,62.20
2017-03-24T02:41:52.725Z,62.70
2017-03-24T02:42:58.741Z,62.20
2017-03-24T02:44:03.709Z,62.20
2017-03-24T02:45:09.102Z,62.10
2017-03-24T02:46:14.779Z,62.60
2017-03-24T02:47:20.373Z,62.50
2017-03-24T02:48:25.933Z,62.80
2017-03-24T02:49:32.363Z,64.00
2017-03-24T02:50:37.105Z,64.00
2017-03-24T02:51:43.377Z,64.00
2017-03-24T02:52:49.017Z,63.80
2017-03-24T02:53:53.868Z,63.80
2017-03-24T02:55:00.041Z,62.90
2017-03-24T02:56:05.643Z,63.60
2017-03-24T02:57:11.339Z,63.40
2017-03-24T02:58:16.945Z,63.70
2017-03-24T02:59:23.354Z,62.70
2017-03-24T03:00:28.285Z,62.60
2017-03-24T03:01:33.975Z,62.70
2017-03-24T03:02:39.564Z,62.80
2017-03-24T03:03:46.039Z,63.60
2017-03-24T03:04:50.705Z,63.60
2017-03-24T03:05:55.374Z,63.30
2017-03-24T03:07:01.033Z,63.10
2017-03-24T03:08:06.553Z,63.60
2017-03-24T03:09:13.075Z,62.90
2017-03-24T03:10:18.729Z,63.10
2017-03-24T03:11:23.545Z,63.10
2017-03-24T03:12:29.260Z,63.90
2017-03-24T03:13:35.686Z,63.80
2017-03-24T03:14:40.657Z,63.80
2017-03-24T03:15:46.307Z,63.30
2017-03-24T03:16:52.645Z,63.50
2017-03-24T03:17:57.359Z,63.50
2017-03-24T03:19:03.780Z,64.00
2017-03-24T03:20:08.777Z,64.00
2017-03-24T03:21:14.982Z,63.10
2017-03-24T03:22:20.717Z,62.40
2017-03-24T03:23:26.318Z,62.60
2017-03-24T03:24:31.121Z,62.60
2017-03-24T03:25:36.852Z,61.90
2017-03-24T03:26:43.080Z,62.80
2017-03-24T03:27:48.700Z,63.20
2017-03-24T03:28:53.505Z,62.30
2017-03-24T03:29:59.174Z,62.80
2017-03-24T03:31:05.749Z,62.50
2017-03-24T03:32:10.434Z,62.50
2017-03-24T03:33:15.866Z,61.30
2017-03-24T03:34:21.452Z,62.30
2017-03-24T03:35:27.191Z,62.50
2017-03-24T03:36:33.518Z,63.20
2017-03-24T03:37:38.282Z,63.30
2017-03-24T03:38:43.774Z,63.50
2017-03-24T03:39:49.406Z,63.60
2017-03-24T03:40:56.453Z,62.80
2017-03-24T03:42:02.150Z,63.30
2017-03-24T03:43:07.785Z,64.10
2017-03-24T03:44:12.754Z,64.10
2017-03-24T03:45:18.678Z,64.60
2017-03-24T03:46:24.000Z,64.30
2017-03-24T03:47:29.589Z,63.30
2017-03-24T03:48:35.848Z,63.80
2017-03-24T03:49:40.807Z,63.90
2017-03-24T03:50:46.221Z,64.70
2017-03-24T03:51:51.890Z,63.80
2017-03-24T03:52:57.585Z,63.40
2017-03-24T03:54:03.743Z,63.10
2017-03-24T03:55:08.679Z,63.10
2017-03-24T03:56:14.278Z,63.40
2017-03-24T03:57:19.886Z,62.70
2017-03-24T03:58:26.217Z,63.40
2017-03-24T03:59:30.981Z,63.30
2017-03-24T04:00:37.409Z,63.50
2017-03-24T04:01:43.082Z,64.10
2017-03-24T04:02:48.646Z,63.10
2017-03-24T04:03:54.221Z,63.40
2017-03-24T04:04:59.902Z,64.20
2017-03-24T04:06:05.679Z,63.00
2017-03-24T04:07:10.700Z,63.00
2017-03-24T04:08:16.269Z,62.90
2017-03-24T04:09:22.490Z,62.40
2017-03-24T04:10:28.172Z,63.00
2017-03-24T04:11:32.940Z,63.20
2017-03-24T04:12:38.475Z,61.70
2017-03-24T04:13:43.424Z,61.30
2017-03-24T04:14:49.690Z,61.70
2017-03-24T04:15:56.089Z,61.90
2017-03-24T04:17:00.961Z,61.80
2017-03-24T04:18:06.569Z,62.80
2017-03-24T04:19:12.266Z,61.90
2017-03-24T04:20:18.612Z,61.20
2017-03-24T04:21:24.182Z,61.60
2017-03-24T04:22:29.830Z,61.50
2017-03-24T04:23:36.122Z,61.50
2017-03-24T04:24:40.897Z,61.40
2017-03-24T04:25:47.377Z,61.20
2017-03-24T04:26:53.084Z,61.10
2017-03-24T04:27:59.433Z,61.50
2017-03-24T04:29:04.965Z,61.70
2017-03-24T04:30:09.788Z,61.70
2017-03-24T04:31:16.098Z,61.80
2017-03-24T04:32:20.910Z,61.80
2017-03-24T04:33:27.341Z,61.20
2017-03-24T04:34:32.282Z,61.20
2017-03-24T04:35:37.010Z,61.30
2017-03-24T04:36:43.316Z,61.40
2017-03-24T04:37:48.977Z,61.10
2017-03-24T04:38:53.746Z,61.20
2017-03-24T04:40:00.099Z,61.30
2017-03-24T04:41:05.608Z,60.50
2017-03-24T04:42:10.377Z,60.40
2017-03-24T04:43:16.568Z,61.60
2017-03-24T04:44:21.402Z,61.40
2017-03-24T04:45:27.617Z,61.70
2017-03-24T04:46:33.178Z,61.10
2017-03-24T04:47:38.783Z,61.40
2017-03-24T04:48:43.440Z,61.30
2017-03-24T04:49:49.032Z,60.80
2017-03-24T04:50:55.298Z,62.20
2017-03-24T04:52:00.143Z,62.10
2017-03-24T04:53:06.560Z,63.30
2017-03-24T04:54:12.978Z,61.50
2017-03-24T04:55:18.460Z,59.90
2017-03-24T04:56:23.377Z,59.90
2017-03-24T04:57:28.811Z,60.80
2017-03-24T04:58:33.710Z,60.70
2017-03-24T04:59:40.021Z,61.30
2017-03-24T05:00:45.755Z,61.50
2017-03-24T05:01:50.546Z,61.50
2017-03-24T05:02:55.403Z,60.80
2017-03-24T05:04:01.054Z,61.70
2017-03-24T05:05:06.672Z,61.60
2017-03-24T05:06:13.005Z,62.50
2017-03-24T05:07:18.778Z,62.20
2017-03-24T05:08:23.766Z,62.20
2017-03-24T05:09:30.046Z,60.00
2017-03-24T05:10:34.888Z,61.00
2017-03-24T05:11:40.586Z,60.90
2017-03-24T05:12:46.216Z,61.10
2017-03-24T05:13:51.803Z,61.20
2017-03-24T05:14:56.594Z,62.30
2017-03-24T05:16:02.208Z,60.00
2017-03-24T05:17:06.940Z,61.30
2017-03-24T05:18:12.489Z,60.40
2017-03-24T05:19:18.890Z,60.00
2017-03-24T05:20:23.905Z,59.90
2017-03-24T05:21:30.238Z,59.80
2017-03-24T05:22:34.975Z,59.80
2017-03-24T05:23:41.416Z,59.90
2017-03-24T05:24:46.161Z,59.90
2017-03-24T05:25:52.473Z,59.70
2017-03-24T05:26:57.273Z,59.60
2017-03-24T05:28:02.897Z,60.30
2017-03-24T05:29:09.199Z,59.50
2017-03-24T05:30:13.905Z,59.40
2017-03-24T05:31:20.329Z,61.60
2017-03-24T05:32:26.014Z,61.40
2017-03-24T05:33:31.630Z,60.00
2017-03-24T05:34:37.280Z,59.50
2017-03-24T05:35:43.724Z,59.80
2017-03-24T05:36:48.538Z,59.90
2017-03-24T05:37:54.142Z,60.90
2017-03-24T05:38:59.698Z,60.60
2017-03-24T05:40:05.233Z,61.50
2017-03-24T05:41:10.837Z,61.20
2017-03-24T05:42:15.825Z,61.10
2017-03-24T05:43:22.189Z,61.50
2017-03-24T05:44:27.023Z,61.60
2017-03-24T05:45:33.258Z,62.10
2017-03-24T05:46:38.028Z,62.00
2017-03-24T05:47:43.551Z,61.60
2017-03-24T05:48:49.095Z,63.30
2017-03-24T05:49:55.574Z,61.80
2017-03-24T05:51:01.160Z,61.20
2017-03-24T05:52:06.772Z,60.20
2017-03-24T05:53:11.736Z,60.20
2017-03-24T05:54:17.278Z,60.60
2017-03-24T05:55:22.845Z,61.20
2017-03-24T05:56:29.201Z,60.90
2017-03-24T05:57:34.733Z,59.80
2017-03-24T05:58:39.474Z,59.70
2017-03-24T05:59:45.166Z,61.10
2017-03-24T06:00:50.841Z,60.80
2017-03-24T06:01:56.281Z,59.60
2017-03-24T06:03:01.822Z,59.40
2017-03-24T06:04:07.522Z,58.90
2017-03-24T06:05:12.360Z,58.80
2017-03-24T06:06:17.898Z,59.40
2017-03-24T06:07:24.170Z,59.60
2017-03-24T06:08:29.077Z,59.60
2017-03-24T06:09:35.614Z,58.00
2017-03-24T06:10:41.238Z,57.90
2017-03-24T06:11:46.930Z,58.30
2017-03-24T06:12:52.574Z,58.60
2017-03-24T06:13:58.112Z,58.50
2017-03-24T06:15:03.658Z,58.80
2017-03-24T06:16:09.120Z,58.30
2017-03-24T06:17:14.619Z,58.40
2017-03-24T06:18:19.461Z,58.40
2017-03-24T06:19:24.878Z,58.20
2017-03-24T06:20:31.305Z,58.00
2017-03-24T06:21:36.726Z,58.60
2017-03-24T06:22:42.452Z,59.00
2017-03-24T06:23:48.133Z,58.70
2017-03-24T06:24:53.721Z,59.50
2017-03-24T06:25:58.738Z,59.50
2017-03-24T06:27:05.003Z,58.60
2017-03-24T06:28:09.754Z,58.40
2017-03-24T06:29:15.443Z,59.20
2017-03-24T06:30:20.989Z,57.30
2017-03-24T06:31:27.384Z,58.00
2017-03-24T06:32:32.154Z,57.80
2017-03-24T06:33:38.519Z,58.10
2017-03-24T06:34:43.520Z,57.50
2017-03-24T06:35:49.965Z,57.20
2017-03-24T06:36:54.877Z,57.20
2017-03-24T06:38:00.071Z,57.50
2017-03-24T06:39:06.122Z,57.40
2017-03-24T06:40:12.569Z,57.30
2017-03-24T06:41:18.085Z,57.20
2017-03-24T06:42:23.130Z,57.40
2017-03-24T06:43:28.613Z,56.50
2017-03-24T06:44:34.197Z,57.00
2017-03-24T06:45:39.822Z,56.60
2017-03-24T06:46:44.766Z,56.60
2017-03-24T06:47:50.397Z,57.20
2017-03-24T06:48:55.260Z,57.10
2017-03-24T06:50:00.871Z,57.50
2017-03-24T06:51:05.528Z,56.60
2017-03-24T06:52:11.872Z,60.90
2017-03-24T06:53:18.335Z,55.60
2017-03-24T06:54:23.824Z,56.50
2017-03-24T06:55:28.550Z,56.30
2017-03-24T06:56:34.124Z,56.40
2017-03-24T06:57:39.574Z,56.40
2017-03-24T06:58:45.410Z,56.20
2017-03-24T06:59:50.933Z,56.20
2017-03-24T07:00:57.318Z,56.70
2017-03-24T07:02:02.028Z,56.70
2017-03-24T07:03:07.581Z,56.50
2017-03-24T07:04:13.809Z,56.60
2017-03-24T07:05:19.441Z,57.90
2017-03-24T07:06:24.925Z,56.30
2017-03-24T07:07:29.646Z,56.20
2017-03-24T07:08:36.061Z,56.60
2017-03-24T07:09:42.633Z,58.80
2017-03-24T07:10:48.267Z,56.20
2017-03-24T07:11:52.949Z,56.40
2017-03-24T07:12:59.335Z,56.20
2017-03-24T07:14:05.037Z,56.40
2017-03-24T07:15:10.095Z,56.40
2017-03-24T07:16:15.538Z,56.50
2017-03-24T07:17:22.141Z,56.60
2017-03-24T07:18:27.752Z,56.60
2017-03-24T07:19:33.177Z,55.80
2017-03-24T07:20:37.993Z,55.80
2017-03-24T07:21:43.532Z,57.20
2017-03-24T07:22:48.172Z,56.50
2017-03-24T07:23:54.504Z,56.40
2017-03-24T07:25:00.104Z,57.40
2017-03-24T07:26:05.068Z,57.70
2017-03-24T07:27:11.360Z,55.80
2017-03-24T07:28:16.849Z,55.10
2017-03-24T07:29:22.663Z,55.50
2017-03-24T07:30:27.569Z,55.40
2017-03-24T07:31:33.122Z,55.20
2017-03-24T07:32:37.853Z,56.00
2017-03-24T07:33:44.229Z,56.90
2017-03-24T07:34:48.996Z,56.50
2017-03-24T07:35:53.752Z,55.30
2017-03-24T07:37:00.144Z,55.40
2017-03-24T07:38:04.897Z,55.30
2017-03-24T07:39:11.320Z,55.40
2017-03-24T07:40:16.154Z,55.40
2017-03-24T07:41:21.725Z,57.20
2017-03-24T07:42:27.401Z,56.30
2017-03-24T07:43:33.446Z,55.70
2017-03-24T07:44:39.246Z,55.40
2017-03-24T07:45:44.749Z,55.10
2017-03-24T07:46:49.448Z,55.10
2017-03-24T07:47:54.133Z,55.40
2017-03-24T07:49:00.482Z,55.40
2017-03-24T07:50:06.229Z,54.60
2017-03-24T07:51:11.717Z,55.60
2017-03-24T07:52:16.648Z,56.30
2017-03-24T07:53:22.324Z,55.80
2017-03-24T07:54:28.476Z,55.30
2017-03-24T07:55:34.141Z,54.60
2017-03-24T07:56:39.137Z,54.50
2017-03-24T07:57:44.599Z,54.60
2017-03-24T07:58:49.400Z,54.80
2017-03-24T07:59:54.800Z,53.90
2017-03-24T08:01:00.337Z,55.00
2017-03-24T08:02:05.339Z,54.80
2017-03-24T08:03:10.928Z,56.00
2017-03-24T08:04:16.672Z,55.30
2017-03-24T08:05:22.208Z,54.30
2017-03-24T08:06:26.907Z,54.30
2017-03-24T08:07:33.279Z,54.80
2017-03-24T08:08:39.009Z,55.20
2017-03-24T08:09:46.436Z,54.60
2017-03-24T08:10:51.265Z,54.60
2017-03-24T08:11:57.708Z,55.00
2017-03-24T08:13:02.596Z,55.10
2017-03-24T08:14:07.320Z,54.40
2017-03-24T08:15:12.052Z,54.20
2017-03-24T08:16:18.438Z,54.80
2017-03-24T08:17:23.238Z,54.80
2017-03-24T08:18:29.572Z,54.20
2017-03-24T08:19:34.548Z,54.20
2017-03-24T08:20:40.200Z,54.40
2017-03-24T08:21:44.804Z,54.40
2017-03-24T08:22:50.294Z,55.00
2017-03-24T08:23:55.072Z,55.00
2017-03-24T08:25:01.454Z,54.00
2017-03-24T08:26:06.957Z,54.80
2017-03-24T08:27:12.389Z,54.60
2017-03-24T08:28:17.985Z,53.80
2017-03-24T08:29:23.569Z,54.10
2017-03-24T08:30:29.109Z,53.60
2017-03-24T08:31:34.005Z,53.50
2017-03-24T08:32:40.344Z,54.90
2017-03-24T08:33:45.293Z,54.90
2017-03-24T08:34:50.879Z,54.30
2017-03-24T08:35:55.566Z,52.70
2017-03-24T08:37:01.153Z,53.40
2017-03-24T08:38:05.900Z,54.90
2017-03-24T08:39:10.547Z,53.70
2017-03-24T08:40:16.057Z,53.30
2017-03-24T08:41:21.653Z,53.00
2017-03-24T08:42:27.177Z,52.90
2017-03-24T08:43:32.001Z,54.50
2017-03-24T08:44:36.820Z,53.20
2017-03-24T08:45:43.266Z,53.40
2017-03-24T08:46:48.036Z,53.20
2017-03-24T08:47:53.505Z,54.20
2017-03-24T08:48:58.204Z,56.10
2017-03-24T08:50:04.668Z,54.80
2017-03-24T08:51:09.337Z,54.90
2017-03-24T08:52:14.962Z,53.90
2017-03-24T08:53:20.616Z,53.70
2017-03-24T08:54:26.136Z,53.40
2017-03-24T08:55:31.725Z,53.70
2017-03-24T08:56:37.459Z,53.20
2017-03-24T08:57:43.817Z,54.20
2017-03-24T08:58:48.730Z,53.50
2017-03-24T08:59:54.254Z,52.70
2017-03-24T09:00:59.725Z,52.80
2017-03-24T09:02:04.784Z,52.70
2017-03-24T09:03:11.179Z,52.90
2017-03-24T09:04:16.140Z,53.10
2017-03-24T09:05:22.600Z,52.00
2017-03-24T09:06:28.189Z,52.40
2017-03-24T09:07:34.614Z,54.10
2017-03-24T09:08:40.270Z,53.20
2017-03-24T09:09:47.785Z,53.50
2017-03-24T09:10:52.552Z,53.50
2017-03-24T09:11:59.037Z,53.10
2017-03-24T09:13:04.540Z,53.20
2017-03-24T09:14:09.377Z,53.10
2017-03-24T09:15:15.040Z,53.20
2017-03-24T09:16:21.208Z,52.30
2017-03-24T09:17:26.965Z,53.30
2017-03-24T09:18:31.825Z,53.30
2017-03-24T09:19:38.230Z,52.90
2017-03-24T09:20:42.988Z,52.90
2017-03-24T09:21:48.560Z,52.80
2017-03-24T09:22:54.917Z,52.70
2017-03-24T09:24:00.553Z,52.60
2017-03-24T09:25:05.413Z,52.60
2017-03-24T09:26:11.128Z,53.50
2017-03-24T09:27:17.345Z,54.30
2017-03-24T09:28:22.965Z,53.50
2017-03-24T09:29:27.874Z,53.50
2017-03-24T09:30:33.454Z,52.40
2017-03-24T09:31:39.156Z,52.20
2017-03-24T09:32:44.585Z,52.10
2017-03-24T09:33:50.101Z,52.20
2017-03-24T09:34:54.744Z,52.80
2017-03-24T09:36:00.386Z,53.00
2017-03-24T09:37:05.249Z,52.50
2017-03-24T09:38:09.956Z,53.20
2017-03-24T09:39:16.376Z,51.00
2017-03-24T09:40:22.017Z,52.50
2017-03-24T09:41:26.712Z,52.20
2017-03-24T09:42:31.438Z,50.90
2017-03-24T09:43:36.124Z,51.10
2017-03-24T09:44:41.717Z,51.20
2017-03-24T09:45:46.485Z,52.40
2017-03-24T09:46:51.965Z,50.10
2017-03-24T09:47:58.364Z,51.60
2017-03-24T09:49:03.141Z,51.60
2017-03-24T09:50:08.755Z,51.10
2017-03-24T09:51:14.382Z,51.40
2017-03-24T09:52:20.716Z,51.30
2017-03-24T09:53:25.552Z,51.20
2017-03-24T09:54:30.269Z,53.90
2017-03-24T09:55:35.933Z,50.50
2017-03-24T09:56:42.322Z,50.90
2017-03-24T09:57:47.105Z,50.70
2017-03-24T09:58:53.570Z,49.90
2017-03-24T09:59:58.257Z,49.80
2017-03-24T10:01:04.737Z,50.40
2017-03-24T10:02:10.205Z,49.70
2017-03-24T10:03:15.866Z,49.90
2017-03-24T10:04:20.744Z,49.80
2017-03-24T10:05:26.376Z,53.80
2017-03-24T10:06:32.669Z,49.70
2017-03-24T10:07:38.219Z,49.60
2017-03-24T10:08:43.892Z,49.90
2017-03-24T10:09:49.608Z,49.80
2017-03-24T10:10:54.437Z,50.30
2017-03-24T10:12:00.032Z,49.90
2017-03-24T10:13:06.376Z,50.80
2017-03-24T10:14:11.997Z,51.30
2017-03-24T10:15:17.017Z,51.30
2017-03-24T10:16:22.524Z,50.00
2017-03-24T10:17:27.880Z,50.40
2017-03-24T10:18:33.449Z,50.30
2017-03-24T10:19:39.745Z,49.30
2017-03-24T10:20:44.580Z,49.80
2017-03-24T10:21:50.704Z,49.40
2017-03-24T10:22:55.556Z,49.40
2017-03-24T10:24:01.176Z,51.50
2017-03-24T10:25:07.596Z,51.50
2017-03-24T10:26:12.404Z,51.50
2017-03-24T10:27:18.025Z,50.10
2017-03-24T10:28:23.605Z,50.40
2017-03-24T10:29:29.317Z,51.00
2017-03-24T10:30:35.548Z,50.60
2017-03-24T10:31:41.229Z,50.40
2017-03-24T10:32:46.109Z,50.30
2017-03-24T10:33:50.925Z,50.60
2017-03-24T10:34:56.313Z,49.60
2017-03-24T10:36:02.041Z,50.90
2017-03-24T10:37:07.697Z,49.90
2017-03-24T10:38:13.925Z,50.20
2017-03-24T10:39:18.862Z,50.10
2017-03-24T10:40:24.393Z,49.50
2017-03-24T10:41:30.003Z,49.30
2017-03-24T10:42:36.425Z,48.60
2017-03-24T10:43:41.198Z,48.80
2017-03-24T10:44:46.706Z,51.90
2017-03-24T10:45:52.328Z,48.30
2017-03-24T10:46:57.910Z,48.70
2017-03-24T10:48:02.736Z,48.70
2017-03-24T10:49:08.368Z,49.20
2017-03-24T10:50:14.813Z,49.30
2017-03-24T10:51:19.749Z,49.20
2017-03-24T10:52:26.170Z,48.90
2017-03-24T10:53:31.822Z,48.90
2017-03-24T10:54:37.674Z,47.90
2017-03-24T10:55:42.490Z,48.00
2017-03-24T10:56:47.194Z,49.00
2017-03-24T10:57:53.589Z,48.60
2017-03-24T10:58:58.441Z,48.60
2017-03-24T11:00:04.866Z,48.40
2017-03-24T11:01:10.433Z,48.60
2017-03-24T11:02:15.189Z,48.50
2017-03-24T11:03:20.819Z,48.80
2017-03-24T11:04:27.181Z,48.80
2017-03-24T11:05:32.010Z,48.80
2017-03-24T11:06:37.570Z,48.90
2017-03-24T11:07:42.977Z,49.10
2017-03-24T11:08:48.635Z,50.50
2017-03-24T11:09:54.868Z,48.70
2017-03-24T11:10:59.817Z,48.60
2017-03-24T11:12:06.085Z,48.80
2017-03-24T11:13:10.993Z,48.90
2017-03-24T11:14:17.353Z,48.00
2017-03-24T11:15:22.253Z,47.90
2017-03-24T11:16:27.608Z,47.60
2017-03-24T11:17:33.169Z,48.20
2017-03-24T11:18:38.798Z,48.20
2017-03-24T11:19:43.520Z,48.20
2017-03-24T11:20:49.977Z,48.60
2017-03-24T11:21:55.599Z,47.00
2017-03-24T11:23:00.502Z,47.00
2017-03-24T11:24:05.915Z,47.50
2017-03-24T11:25:11.556Z,47.30
2017-03-24T11:26:17.265Z,50.00
2017-03-24T11:27:22.625Z,47.80
2017-03-24T11:28:28.295Z,46.90
2017-03-24T11:29:33.089Z,47.40
2017-03-24T11:30:38.540Z,47.10
2017-03-24T11:31:44.200Z,50.70
2017-03-24T11:32:48.914Z,50.10
2017-03-24T11:33:55.344Z,47.10
2017-03-24T11:35:00.030Z,46.90
2017-03-24T11:36:06.460Z,45.70
2017-03-24T11:37:11.250Z,45.70
2017-03-24T11:38:16.884Z,47.60
2017-03-24T11:39:22.446Z,45.80
2017-03-24T11:40:28.073Z,46.30
2017-03-24T11:41:32.879Z,46.20
2017-03-24T11:42:39.171Z,45.40
2017-03-24T11:43:43.973Z,46.00
2017-03-24T11:44:49.528Z,45.50
2017-03-24T11:45:55.069Z,46.60
2017-03-24T11:47:00.653Z,46.90
2017-03-24T11:48:05.637Z,46.90
2017-03-24T11:49:11.945Z,46.20
2017-03-24T11:50:16.782Z,46.20
2017-03-24T11:51:22.300Z,44.30
2017-03-24T11:52:27.753Z,43.80
2017-03-24T11:53:33.423Z,44.20
2017-03-24T11:54:39.786Z,45.90
2017-03-24T11:55:44.561Z,46.00
2017-03-24T11:56:50.993Z,44.70
2017-03-24T11:57:56.589Z,43.90
2017-03-24T11:59:01.985Z,43.80
2017-03-24T12:00:08.221Z,44.90
2017-03-24T12:01:14.733Z,45.20
2017-03-24T12:02:20.273Z,44.30
2017-03-24T12:03:25.864Z,45.40
2017-03-24T12:04:30.877Z,44.70
2017-03-24T12:05:36.991Z,43.80
2017-03-24T12:06:41.953Z,43.80
2017-03-24T12:07:48.280Z,42.70
2017-03-24T12:08:53.936Z,43.70
2017-03-24T12:09:59.312Z,43.70
2017-03-24T12:11:04.901Z,42.00
2017-03-24T12:12:09.572Z,41.80
2017-03-24T12:13:15.954Z,44.60
2017-03-24T12:14:21.709Z,41.70
2017-03-24T12:15:26.448Z,41.70
2017-03-24T12:16:32.044Z,43.70
2017-03-24T12:17:37.570Z,44.10
2017-03-24T12:18:43.140Z,42.60
2017-03-24T12:19:48.779Z,42.40
2017-03-24T12:20:53.685Z,42.50
2017-03-24T12:21:59.933Z,43.10
2017-03-24T12:23:05.671Z,44.90
2017-03-24T12:24:11.232Z,42.50
2017-03-24T12:25:16.896Z,42.40
2017-03-24T12:26:22.437Z,44.50
2017-03-24T12:27:28.622Z,42.40
2017-03-24T12:28:34.257Z,43.10
2017-03-24T12:29:39.143Z,42.90
2017-03-24T12:30:44.797Z,42.50
2017-03-24T12:31:50.345Z,43.40
2017-03-24T12:32:56.805Z,43.10
2017-03-24T12:34:01.749Z,42.90
2017-03-24T12:35:08.362Z,43.60
2017-03-24T12:36:13.201Z,43.50
2017-03-24T12:37:19.486Z,43.50
2017-03-24T12:38:25.112Z,41.80
2017-03-24T12:39:30.032Z,41.80
2017-03-24T12:40:35.533Z,46.80
2017-03-24T12:41:40.349Z,46.40
2017-03-24T12:42:46.037Z,42.10
2017-03-24T12:43:51.473Z,42.00
2017-03-24T12:44:56.934Z,42.50
2017-03-24T12:46:02.537Z,40.80
2017-03-24T12:47:08.225Z,40.70
2017-03-24T12:48:14.576Z,41.30
2017-03-24T12:49:19.372Z,41.40
2017-03-24T12:50:25.818Z,45.40
2017-03-24T12:51:30.706Z,44.80
2017-03-24T12:52:36.370Z,41.20
2017-03-24T12:53:41.138Z,40.70
2017-03-24T12:54:46.742Z,40.20
2017-03-24T12:55:52.333Z,40.20
2017-03-24T12:56:57.869Z,39.90
2017-03-24T12:58:03.549Z,42.70
2017-03-24T12:59:09.224Z,40.30
2017-03-24T13:00:15.649Z,39.60
2017-03-24T13:01:21.304Z,41.20
2017-03-24T13:02:26.037Z,40.20
2017-03-24T13:03:31.720Z,40.60
2017-03-24T13:04:38.048Z,42.50
2017-03-24T13:05:42.733Z,42.50
2017-03-24T13:06:48.332Z,42.10
2017-03-24T13:07:53.916Z,39.60
2017-03-24T13:08:58.617Z,40.60
2017-03-24T13:10:03.400Z,41.20
2017-03-24T13:11:09.784Z,41.00
2017-03-24T13:12:14.534Z,41.00
2017-03-24T13:13:20.938Z,39.70
2017-03-24T13:14:26.721Z,40.60
2017-03-24T13:15:31.720Z,40.60
2017-03-24T13:16:37.120Z,39.90
2017-03-24T13:17:42.772Z,39.90
2017-03-24T13:18:49.048Z,40.70
2017-03-24T13:19:54.734Z,40.30
2017-03-24T13:20:59.712Z,40.10
2017-03-24T13:22:05.162Z,40.80
2017-03-24T13:23:09.886Z,42.40
2017-03-24T13:24:15.456Z,41.20
2017-03-24T13:25:21.132Z,42.20
2017-03-24T13:26:26.630Z,39.80
2017-03-24T13:27:32.077Z,40.60
2017-03-24T13:28:38.556Z,40.30
2017-03-24T13:29:44.210Z,42.70
2017-03-24T13:30:49.701Z,42.70
2017-03-24T13:31:55.406Z,40.60
2017-03-24T13:33:01.086Z,42.30
2017-03-24T13:34:06.729Z,40.40
2017-03-24T13:35:11.822Z,40.40
2017-03-24T13:36:18.124Z,38.50
2017-03-24T13:37:23.144Z,38.40
2017-03-24T13:38:28.753Z,40.00
2017-03-24T13:39:35.028Z,39.10
2017-03-24T13:40:39.809Z,39.00
2017-03-24T13:41:45.413Z,39.20
2017-03-24T13:42:51.076Z,39.50
2017-03-24T13:43:57.381Z,42.50
2017-03-24T13:45:02.278Z,42.40
2017-03-24T13:46:08.744Z,38.50
2017-03-24T13:47:13.497Z,38.50
2017-03-24T13:48:19.029Z,40.50
2017-03-24T13:49:24.632Z,40.60
2017-03-24T13:50:29.313Z,40.40
2017-03-24T13:51:36.246Z,38.80
2017-03-24T13:52:42.100Z,41.00
2017-03-24T13:53:46.818Z,41.20
2017-03-24T13:54:51.529Z,39.40
2017-03-24T13:55:57.861Z,41.50
2017-03-24T13:57:02.646Z,41.60
2017-03-24T13:58:08.298Z,38.20
2017-03-24T13:59:13.913Z,37.10
2017-03-24T14:00:19.252Z,38.60
2017-03-24T14:01:24.776Z,38.50
2017-03-24T14:02:30.334Z,37.70
2017-03-24T14:03:36.569Z,37.90